Sible Hedingham, United Kingdom
Current Conditions -  °F | °C
As of 2:50 PM on Thursday 30 Oct 2014 (Local Time) from EGSS Reporting Station
Broken Clouds Broken Clouds  
Wind Chill: 63°   Ceiling: 1800
Heat Index: 63°   Visibility: 6mi
Dew Point: 59°   Wind: 6mph
Humidity: 88%   Direction: 250°WSW
Pressure: 30.09"   Gusts: NA
Location:  51.98°N, 0.59°E
Report Text: EGSS 301450Z 25005KT 9000 SCT014 BKN018 17/15 Q1019
Loading
Personal Weather Stations






























Interactive Weather Map
Tropical Storm Tracking
New forecast layout! Learn more

10-Day Weather Forecast

Advertisements
Track Severe Weather on mobile